Wednesday, November 22, 2017, 4:11 AM EST
Back to Local

KPHF, Williamsburg International Airport

Location: Newport News, VA, United States Lat: 37.133
Local Time: 4:11 AM EST ( 9:11 GMT) Lon: -76.5
Time Zone: US/Eastern Elev: 42 ft

Show me the last for .
Show Decoded

2017-11-22 03:54 METAR KPHF 220854Z 00000KT 10SM BKN090 BKN120 13/12 A2991 RMK AO2 SLP127
                 T01330117 58030 =
2017-11-22 02:54 METAR KPHF 220754Z 15003KT 10SM FEW080 14/12 A2994 RMK AO2 SLP139 T01440122 =
2017-11-22 01:54 METAR KPHF 220654Z 17006KT 10SM OVC110 16/12 A2997 RMK AO2 SLP148 T01560122 =
2017-11-22 00:54 METAR KPHF 220554Z 16004KT 10SM OVC100 15/11 A3000 RMK AO2 SLP158 60000
                 T01500111 10150 20139 58025 =
2017-11-21 23:54 METAR KPHF 220454Z 16005KT 10SM BKN075 OVC095 15/11 A3003 RMK AO2 SLP169
                 T01500106 401830000 =
2017-11-21 22:54 METAR KPHF 220354Z 16006KT 10SM BKN075 OVC095 14/10 A3005 RMK AO2 RAB0256E05
                 SLP176 P0000 T01440100 =
2017-11-21 21:54 METAR KPHF 220254Z 10SM BKN065 OVC100 14/09 A3007 RMK AO2 SLP183 T01440089 58013
                 =
2017-11-21 20:54 METAR KPHF 220154Z 17004KT 10SM FEW070 SCT095 14/09 A3009 RMK AO2 SLP189
                 T01390089 =
2017-11-21 19:54 METAR KPHF 220054Z 16005KT 10SM CLR 14/08 A3011 RMK AO2 SLP195 T01440083 =
2017-11-21 18:54 METAR KPHF 212354Z 15007KT 10SM SCT080 14/08 A3011 RMK AO2 SLP196 T01440083
                 10183 20133 55003 =
2017-11-21 17:54 METAR KPHF 212254Z 16005KT 10SM CLR 14/07 A3011 RMK AO2 SLP195 T01390072 =
2017-11-21 16:54 METAR KPHF 212154Z 18004KT 10SM CLR 15/06 A3012 RMK AO2 SLP198 T01500056 =
2017-11-21 15:54 METAR KPHF 212054Z 19006KT 10SM CLR 17/04 A3012 RMK AO2 SLP199 T01670044 56016 =
2017-11-21 14:54 METAR KPHF 211954Z 18007KT 10SM CLR 17/04 A3012 RMK AO2 SLP200 T01720039 =
2017-11-21 13:54 METAR KPHF 211854Z 22010KT 10SM CLR 17/03 A3014 RMK AO2 SLP204 T01720028 =
2017-11-21 12:54 METAR KPHF 211754Z 19009KT 10SM CLR 17/01 A3017 RMK AO2 SLP215 T01670011 10167
                 20039 58028 =
2017-11-21 11:54 METAR KPHF 211654Z 21007KT 10SM CLR 15/01 A3020 RMK AO2 SLP226 T01500006 =
2017-11-21 10:54 METAR KPHF 211554Z 22009KT 10SM CLR 12/01 A3024 RMK AO2 SLP239 T01220011 =
2017-11-21 09:54 METAR KPHF 211454Z 21007KT 10SM CLR 10/02 A3025 RMK AO2 SLP244 T01000017 50005 =
2017-11-21 08:54 METAR KPHF 211354Z 22006KT 10SM CLR 08/02 A3026 RMK AO2 SLP246 T00830022 =
2017-11-21 07:54 METAR KPHF 211254Z 22007KT 10SM CLR 06/02 A3025 RMK AO2 SLP243 T00610022 =
2017-11-21 06:54 METAR KPHF 211154Z 22009KT 10SM CLR 04/01 A3024 RMK AO2 SLP239 T00440006 10050
                 20000 55001 =
2017-11-21 05:54 METAR KPHF 211054Z 20005KT 10SM CLR 04/01 A3023 RMK AO2 SLP237 T00440006 =
2017-11-21 04:54 METAR KPHF 210954Z AUTO 20006KT 10SM CLR 04/01 A3023 RMK AO2 SLP238 T00390006 =

Support USWX by starting your Amazon purchase here.